Time;durP1;ratioP1;P1;durP2;ratioP2;P2;SDS_P1;SDS_P2;PMS_P1;PMS_P2;Temp;Humidity;BMP_temperature;BMP_pressure;BME280_temperature;BME280_humidity;BME280_pressure;Samples;Min_cycle;Max_cycle;Signal;HPM_P1;HPM_P2
2021/12/30 05:02:16;;;;;;;2.95;1.30;;;12.70;99.90;;;;;;5213485;22;89974;-75
2021/12/30 05:04:41;;;;;;;1.42;1.10;;;12.70;99.90;;;;;;5041795;28;89170;-75
2021/12/30 05:07:07;;;;;;;1.38;1.00;;;12.70;99.90;;;;;;5041594;28;89080;-74
2021/12/30 05:09:33;;;;;;;1.70;1.05;;;12.70;99.90;;;;;;5041710;28;88863;-75
2021/12/30 05:11:59;;;;;;;1.30;1.20;;;12.70;99.90;;;;;;5026989;28;89785;-74
2021/12/30 05:14:24;;;;;;;1.92;1.20;;;12.70;99.90;;;;;;5022195;28;89193;-74
2021/12/30 05:16:51;;;;;;;2.40;1.20;;;12.70;99.90;;;;;;5021671;28;89666;-74
2021/12/30 05:19:17;;;;;;;3.22;1.27;;;12.70;99.90;;;;;;5020904;28;89501;-74
2021/12/30 05:21:43;;;;;;;1.58;1.27;;;12.70;99.90;;;;;;5020881;28;88931;-75
2021/12/30 05:24:09;;;;;;;1.02;0.95;;;12.70;99.90;;;;;;5021609;28;89510;-74
2021/12/30 05:26:34;;;;;;;2.03;1.02;;;12.70;99.90;;;;;;5021461;28;88914;-74
2021/12/30 05:29:00;;;;;;;1.75;0.90;;;12.70;99.90;;;;;;5021368;28;89052;-74
2021/12/30 05:31:27;;;;;;;0.88;0.70;;;12.70;99.90;;;;;;5020961;28;89110;-74
2021/12/30 05:33:53;;;;;;;1.13;0.70;;;12.80;99.90;;;;;;5021554;28;89149;-75
2021/12/30 05:36:19;;;;;;;1.65;0.60;;;12.80;99.90;;;;;;5021536;28;90133;-74
2021/12/30 05:38:45;;;;;;;1.08;0.75;;;12.80;99.90;;;;;;5021306;28;89396;-75
2021/12/30 05:41:11;;;;;;;1.00;0.52;;;12.90;99.90;;;;;;5022000;28;88993;-75
2021/12/30 05:43:36;;;;;;;1.23;0.70;;;12.90;99.90;;;;;;5020313;28;88944;-75
2021/12/30 05:46:02;;;;;;;1.80;0.50;;;12.90;99.90;;;;;;5020790;28;89795;-75
2021/12/30 05:48:28;;;;;;;2.10;0.50;;;13.00;99.90;;;;;;5001982;28;91908;-74
2021/12/30 05:50:54;;;;;;;0.70;0.63;;;13.00;99.90;;;;;;5020889;28;88925;-75
2021/12/30 05:53:20;;;;;;;0.70;0.60;;;13.00;99.90;;;;;;5002908;28;88824;-75
2021/12/30 05:55:46;;;;;;;1.30;0.57;;;13.00;99.90;;;;;;5002987;28;92295;-75
2021/12/30 05:58:11;;;;;;;0.40;0.40;;;13.00;99.90;;;;;;5021410;28;90501;-75
2021/12/30 06:00:37;;;;;;;1.00;0.60;;;13.00;99.90;;;;;;5009264;28;88872;-74
2021/12/30 06:03:03;;;;;;;0.50;0.50;;;13.00;99.90;;;;;;5033532;28;88875;-75
2021/12/30 06:05:28;;;;;;;0.40;0.40;;;13.00;99.90;;;;;;5008182;28;91595;-75
2021/12/30 06:07:54;;;;;;;0.50;0.40;;;13.00;99.90;;;;;;5020771;28;89216;-75
2021/12/30 06:10:19;;;;;;;1.27;0.60;;;13.10;99.90;;;;;;5020600;28;88918;-74
2021/12/30 06:12:46;;;;;;;0.75;0.50;;;13.10;99.90;;;;;;5020349;28;89060;-75
2021/12/30 06:15:12;;;;;;;0.75;0.50;;;13.10;99.90;;;;;;5002423;28;93095;-75
2021/12/30 06:17:38;;;;;;;1.90;0.68;;;13.00;99.90;;;;;;5020233;28;88917;-75
2021/12/30 06:20:09;;;;;;;0.60;0.60;;;13.00;99.90;;;;;;5002643;28;89190;-74
2021/12/30 06:22:35;;;;;;;0.88;0.50;;;13.00;99.90;;;;;;5002313;28;89281;-75
2021/12/30 06:25:03;;;;;;;0.40;0.40;;;13.00;99.90;;;;;;5020269;28;91569;-75
2021/12/30 06:27:28;;;;;;;0.80;0.60;;;13.00;99.90;;;;;;5020642;28;89254;-75
2021/12/30 06:29:54;;;;;;;2.22;0.90;;;13.00;99.90;;;;;;5021995;28;89008;-75
2021/12/30 06:32:19;;;;;;;1.48;0.60;;;12.90;99.90;;;;;;5021007;28;89206;-75
2021/12/30 06:34:45;;;;;;;0.60;0.60;;;12.90;99.90;;;;;;5002606;28;93017;-75
2021/12/30 06:37:11;;;;;;;0.60;0.60;;;12.90;99.90;;;;;;5020536;28;89078;-76
2021/12/30 06:39:37;;;;;;;1.63;0.60;;;12.90;99.90;;;;;;5020764;28;89341;-75
2021/12/30 06:42:03;;;;;;;0.77;0.52;;;12.90;99.90;;;;;;5020448;28;88901;-75
2021/12/30 06:44:29;;;;;;;0.80;0.70;;;13.00;99.90;;;;;;5020061;28;92075;-74
2021/12/30 06:46:58;;;;;;;0.70;0.65;;;13.00;99.90;;;;;;5020167;28;89208;-75
2021/12/30 06:49:25;;;;;;;1.25;0.98;;;13.00;99.90;;;;;;5020505;28;89051;-74
2021/12/30 06:51:51;;;;;;;0.80;0.60;;;13.00;99.90;;;;;;5020648;28;89890;-75
2021/12/30 06:54:16;;;;;;;0.80;0.60;;;13.00;99.90;;;;;;5019931;28;89667;-75
2021/12/30 06:56:42;;;;;;;0.60;0.60;;;13.00;99.90;;;;;;5020117;28;88971;-75
2021/12/30 06:59:14;;;;;;;1.08;0.60;;;12.90;99.90;;;;;;5020119;28;88971;-75
2021/12/30 07:01:40;;;;;;;0.70;0.60;;;12.90;99.90;;;;;;5019287;28;89005;-74
2021/12/30 07:04:05;;;;;;;1.00;0.68;;;12.90;99.90;;;;;;5019802;28;88921;-75
2021/12/30 07:06:31;;;;;;;0.95;0.68;;;13.00;99.90;;;;;;5019546;28;90646;-75
2021/12/30 07:08:56;;;;;;;0.50;0.50;;;12.90;99.90;;;;;;5019940;28;88869;-74
2021/12/30 07:11:22;;;;;;;1.00;0.60;;;12.90;99.90;;;;;;5019558;28;89079;-76
2021/12/30 07:13:48;;;;;;;0.90;0.70;;;12.90;99.90;;;;;;5019505;28;89713;-74
2021/12/30 07:16:13;;;;;;;1.17;0.60;;;13.00;99.90;;;;;;5001577;28;90921;-75
2021/12/30 07:18:39;;;;;;;2.25;0.70;;;13.00;99.90;;;;;;5020407;28;88533;-74
2021/12/30 07:21:04;;;;;;;0.65;0.63;;;13.00;99.90;;;;;;5020054;28;89319;-74
2021/12/30 07:23:30;;;;;;;0.82;0.60;;;13.00;99.90;;;;;;5019263;28;89637;-75
2021/12/30 07:25:55;;;;;;;1.92;0.70;;;13.00;99.90;;;;;;5019362;28;88889;-75
2021/12/30 07:28:21;;;;;;;1.85;0.60;;;13.10;99.90;;;;;;5019725;28;88949;-75
2021/12/30 07:30:46;;;;;;;0.70;0.60;;;13.10;99.90;;;;;;5019822;28;89231;-75
2021/12/30 07:33:12;;;;;;;0.52;0.47;;;13.20;99.90;;;;;;5019085;28;89039;-75
2021/12/30 07:35:37;;;;;;;0.75;0.60;;;13.10;99.90;;;;;;5019514;28;88894;-77
2021/12/30 07:38:04;;;;;;;1.95;0.60;;;13.20;99.90;;;;;;5001463;28;89072;-75
2021/12/30 07:40:31;;;;;;;0.98;0.60;;;13.20;99.90;;;;;;5019783;28;89330;-75
2021/12/30 07:42:56;;;;;;;0.60;0.60;;;13.30;99.90;;;;;;5001156;28;91894;-74
2021/12/30 07:45:22;;;;;;;1.00;0.50;;;13.30;99.90;;;;;;5019760;28;89304;-75
2021/12/30 07:47:49;;;;;;;0.63;0.50;;;13.40;99.90;;;;;;5019536;28;89043;-74
2021/12/30 07:50:14;;;;;;;1.15;0.50;;;13.40;99.90;;;;;;5000911;28;89078;-77
2021/12/30 07:52:41;;;;;;;0.43;0.40;;;13.40;99.90;;;;;;5018734;28;90156;-75
2021/12/30 07:55:08;;;;;;;0.73;0.35;;;13.40;99.90;;;;;;5018973;28;88992;-75
2021/12/30 07:57:34;;;;;;;0.30;0.30;;;13.50;99.90;;;;;;5021183;28;88869;-75
2021/12/30 07:59:59;;;;;;;0.35;0.35;;;13.60;99.90;;;;;;5022161;28;89178;-76
2021/12/30 08:02:25;;;;;;;0.40;0.40;;;13.60;99.90;;;;;;5021450;28;89960;-76
2021/12/30 08:04:51;;;;;;;0.52;0.40;;;13.60;99.90;;;;;;5022688;28;89778;-76
2021/12/30 08:07:20;;;;;;;0.40;0.38;;;13.60;99.90;;;;;;5024360;28;89364;-76
2021/12/30 08:09:46;;;;;;;0.47;0.40;;;13.60;99.90;;;;;;5025443;28;89209;-75
2021/12/30 08:12:12;;;;;;;1.45;0.55;;;13.60;99.90;;;;;;5007181;28;91807;-76
2021/12/30 08:14:37;;;;;;;0.40;0.40;;;13.70;99.90;;;;;;5006938;28;91369;-76
2021/12/30 08:17:03;;;;;;;1.20;0.40;;;13.70;99.90;;;;;;5025554;28;89417;-76
2021/12/30 08:19:29;;;;;;;1.02;0.70;;;13.80;99.90;;;;;;5025603;28;89187;-75
2021/12/30 08:21:55;;;;;;;0.40;0.40;;;13.80;99.90;;;;;;5024853;28;89783;-76
2021/12/30 08:24:21;;;;;;;0.35;0.30;;;13.90;99.90;;;;;;5025314;28;88848;-76
2021/12/30 08:26:47;;;;;;;1.42;0.52;;;13.90;99.90;;;;;;5024922;28;89032;-77
2021/12/30 08:29:15;;;;;;;0.60;0.50;;;14.00;99.90;;;;;;5024544;28;89169;-76
2021/12/30 08:31:40;;;;;;;0.47;0.40;;;14.00;99.90;;;;;;5024793;28;90291;-75
2021/12/30 08:34:07;;;;;;;0.88;0.55;;;14.10;99.90;;;;;;5025257;28;89047;-75
2021/12/30 08:36:34;;;;;;;0.40;0.40;;;14.20;99.90;;;;;;5025512;28;88961;-75
2021/12/30 08:38:59;;;;;;;0.70;0.40;;;14.20;99.90;;;;;;5025018;28;89001;-75
2021/12/30 08:41:25;;;;;;;0.65;0.38;;;14.30;99.90;;;;;;5024194;28;90908;-75
2021/12/30 08:43:51;;;;;;;0.75;0.40;;;14.30;99.90;;;;;;5024797;28;89742;-73
2021/12/30 08:46:16;;;;;;;0.50;0.30;;;14.30;99.90;;;;;;5025048;28;88807;-74
2021/12/30 08:48:42;;;;;;;3.50;0.43;;;14.40;99.90;;;;;;5025359;28;88929;-74
2021/12/30 08:51:08;;;;;;;0.40;0.40;;;14.50;99.90;;;;;;5024544;28;89045;-74
2021/12/30 08:53:40;;;;;;;0.82;0.40;;;14.50;99.90;;;;;;5006613;28;91139;-77
2021/12/30 08:56:08;;;;;;;0.20;0.20;;;14.50;99.90;;;;;;5024993;28;89313;-75
2021/12/30 08:58:34;;;;;;;0.30;0.30;;;14.60;99.90;;;;;;5006296;28;89237;-74
2021/12/30 09:00:59;;;;;;;1.13;0.38;;;14.70;99.90;;;;;;5006742;28;92539;-75
2021/12/30 09:03:25;;;;;;;0.35;0.32;;;14.70;99.90;;;;;;5022539;28;89399;-76
2021/12/30 09:05:51;;;;;;;0.35;0.30;;;14.70;99.90;;;;;;5023628;28;88988;-77
2021/12/30 09:08:16;;;;;;;0.30;0.30;;;14.80;99.90;;;;;;5025994;28;89075;-78
2021/12/30 09:10:45;;;;;;;0.43;0.40;;;14.80;99.90;;;;;;5043123;27;89020;-78
2021/12/30 09:13:13;;;;;;;0.20;0.20;;;14.80;99.90;;;;;;5029930;28;91374;-79
2021/12/30 09:15:39;;;;;;;1.10;0.40;;;14.80;99.90;;;;;;5004482;28;88921;-78
2021/12/30 09:18:06;;;;;;;0.68;0.30;;;14.90;99.90;;;;;;5020536;28;89084;-78
2021/12/30 09:20:33;;;;;;;1.10;0.35;;;14.90;99.90;;;;;;5021738;28;89805;-77
2021/12/30 09:23:03;;;;;;;0.82;0.30;;;15.00;99.90;;;;;;5021957;28;89422;-77
2021/12/30 09:25:29;;;;;;;0.40;0.40;;;15.00;99.90;;;;;;5004330;28;88918;-77
2021/12/30 09:27:55;;;;;;;0.60;0.40;;;15.00;99.90;;;;;;5004205;28;89277;-77
2021/12/30 09:30:23;;;;;;;0.88;0.28;;;15.10;99.90;;;;;;5022118;28;89714;-77
2021/12/30 09:32:50;;;;;;;0.20;0.20;;;15.10;99.90;;;;;;5003791;28;90911;-78
2021/12/30 09:35:16;;;;;;;2.35;0.45;;;15.20;99.90;;;;;;5003710;28;88824;-77
2021/12/30 09:37:43;;;;;;;0.77;0.20;;;15.30;99.90;;;;;;5023629;28;89317;-78
2021/12/30 09:40:13;;;;;;;0.75;0.25;;;15.30;99.90;;;;;;5023038;28;90114;-79
2021/12/30 09:42:41;;;;;;;0.20;0.20;;;15.40;99.90;;;;;;5004188;28;92664;-79
2021/12/30 09:45:07;;;;;;;0.30;0.30;;;15.40;99.90;;;;;;5005158;28;88868;-77
2021/12/30 09:47:33;;;;;;;0.20;0.20;;;15.50;99.90;;;;;;5003499;28;88830;-74
2021/12/30 09:49:59;;;;;;;0.60;0.40;;;15.50;99.90;;;;;;5020921;28;90131;-75
2021/12/30 09:52:25;;;;;;;0.40;0.40;;;15.60;99.90;;;;;;5020512;28;89760;-74
2021/12/30 09:54:50;;;;;;;0.95;0.45;;;15.60;99.90;;;;;;5020954;28;89008;-74
2021/12/30 09:57:16;;;;;;;0.32;0.20;;;15.60;99.90;;;;;;5021015;28;89033;-74
2021/12/30 09:59:41;;;;;;;0.70;0.20;;;15.70;99.90;;;;;;5020934;28;89680;-75
2021/12/30 10:02:08;;;;;;;0.20;0.20;;;15.60;99.90;;;;;;5020887;28;89381;-76
2021/12/30 10:04:35;;;;;;;0.90;0.30;;;15.60;99.90;;;;;;5002622;28;88923;-76
2021/12/30 10:07:02;;;;;;;0.30;0.20;;;15.50;99.90;;;;;;5020978;28;88876;-75
2021/12/30 10:09:50;;;;;;;1.95;0.30;;;15.50;99.90;;;;;;5021438;28;88865;-75
2021/12/30 10:12:32;;;;;;;0.20;0.20;;;15.50;99.90;;;;;;5021619;28;89295;-75
2021/12/30 10:14:58;;;;;;;0.30;0.30;;;15.40;99.90;;;;;;5021566;28;88843;-74
2021/12/30 10:17:26;;;;;;;0.40;0.40;;;15.40;99.90;;;;;;5020819;28;88864;-74
2021/12/30 10:19:54;;;;;;;0.40;0.30;;;15.40;99.90;;;;;;5021050;28;91655;-75
2021/12/30 10:22:22;;;;;;;0.50;0.30;;;15.40;99.90;;;;;;5005101;28;89116;-76
2021/12/30 10:24:48;;;;;;;1.52;0.40;;;15.40;99.90;;;;;;5001042;28;88946;-75
2021/12/30 10:27:33;;;;;;;1.45;0.47;;;15.40;99.90;;;;;;5000561;28;89225;-76
2021/12/30 10:29:59;;;;;;;0.52;0.30;;;15.40;99.90;;;;;;5001599;28;89097;-74
2021/12/30 10:32:28;;;;;;;0.45;0.30;;;15.40;99.90;;;;;;5012892;28;90035;-74
2021/12/30 10:35:06;;;;;;;2.97;0.75;;;15.50;99.90;;;;;;4983646;28;91364;-74
2021/12/30 10:37:32;;;;;;;0.35;0.32;;;15.60;99.90;;;;;;4981195;28;89351;-74
2021/12/30 10:39:58;;;;;;;0.38;0.30;;;15.60;99.90;;;;;;4999413;28;89203;-73
2021/12/30 10:42:24;;;;;;;3.35;1.50;;;15.70;99.90;;;;;;4979793;28;92595;-73
2021/12/30 10:44:54;;;;;;;0.30;0.30;;;15.80;99.90;;;;;;4999317;28;90468;-74
2021/12/30 10:47:21;;;;;;;0.28;0.28;;;15.90;99.90;;;;;;4999197;28;89471;-79
2021/12/30 10:50:04;;;;;;;0.38;0.38;;;15.90;99.90;;;;;;4998582;28;91218;-74
2021/12/30 10:52:30;;;;;;;4.35;2.17;;;15.90;99.90;;;;;;4998211;28;89911;-74
2021/12/30 10:54:57;;;;;;;1.48;0.95;;;15.90;99.90;;;;;;4979896;28;89892;-74
2021/12/30 10:57:28;;;;;;;0.77;0.40;;;15.90;99.90;;;;;;4998783;28;89272;-74
2021/12/30 10:59:54;;;;;;;1.35;0.90;;;15.90;99.90;;;;;;5016942;28;88855;-74
2021/12/30 11:02:22;;;;;;;0.40;0.40;;;15.90;99.90;;;;;;5016467;28;89886;-74
2021/12/30 11:05:04;;;;;;;3.80;1.40;;;15.90;99.90;;;;;;5030528;28;90140;-74
2021/12/30 11:07:50;;;;;;;0.30;0.30;;;15.90;99.90;;;;;;5016844;28;90678;-74
2021/12/30 11:10:28;;;;;;;2.78;1.55;;;15.90;99.90;;;;;;5016841;28;89966;-75
2021/12/30 11:12:54;;;;;;;0.68;0.30;;;16.00;99.90;;;;;;5014432;28;90491;-77
2021/12/30 11:15:25;;;;;;;0.70;0.40;;;16.00;99.90;;;;;;5008097;28;90206;-74
2021/12/30 11:18:05;;;;;;;1.58;0.95;;;16.00;99.90;;;;;;5009542;28;89277;-74
2021/12/30 11:20:41;;;;;;;2.75;1.23;;;16.10;99.90;;;;;;5009651;28;89640;-76
2021/12/30 11:23:06;;;;;;;2.38;1.25;;;16.10;99.90;;;;;;5032967;28;93141;-75
2021/12/30 11:25:33;;;;;;;0.75;0.50;;;16.30;99.90;;;;;;5018534;28;89907;-73
2021/12/30 11:27:59;;;;;;;1.40;0.43;;;16.30;99.90;;;;;;5017574;28;89219;-76
2021/12/30 11:30:25;;;;;;;0.43;0.43;;;16.30;99.90;;;;;;5019213;28;90381;-77
2021/12/30 11:32:51;;;;;;;1.48;0.50;;;16.30;99.90;;;;;;5018311;28;91450;-75
2021/12/30 11:35:20;;;;;;;1.35;0.73;;;16.30;99.90;;;;;;5018188;28;90635;-74
2021/12/30 11:37:46;;;;;;;4.07;1.67;;;16.40;99.90;;;;;;5017299;28;89254;-74
2021/12/30 11:40:15;;;;;;;0.90;0.50;;;16.40;99.90;;;;;;5018024;28;89927;-75
2021/12/30 11:42:46;;;;;;;1.27;1.10;;;16.40;99.90;;;;;;5017930;28;89909;-73
2021/12/30 11:45:26;;;;;;;4.88;3.17;;;16.40;99.90;;;;;;5019122;28;89660;-74
2021/12/30 11:47:54;;;;;;;0.50;0.35;;;16.50;99.90;;;;;;5019308;28;89428;-77
2021/12/30 11:50:39;;;;;;;0.68;0.68;;;16.40;99.90;;;;;;5033876;28;91082;-74
2021/12/30 11:53:11;;;;;;;0.38;0.38;;;16.30;99.90;;;;;;5018769;28;90464;-74
2021/12/30 11:56:00;;;;;;;1.00;0.80;;;16.20;99.90;;;;;;5018111;28;89562;-73
2021/12/30 11:58:36;;;;;;;0.90;0.40;;;16.20;99.90;;;;;;5018538;28;90277;-74
2021/12/30 12:01:24;;;;;;;4.22;2.83;;;16.20;99.90;;;;;;5016787;28;89693;-73
2021/12/30 12:03:53;;;;;;;3.72;1.85;;;16.20;99.90;;;;;;5024386;28;89449;-73
2021/12/30 12:06:24;;;;;;;6.90;3.95;;;16.20;99.90;;;;;;5017905;28;92408;-74
2021/12/30 12:09:04;;;;;;;4.10;2.75;;;16.20;99.90;;;;;;5038426;28;89304;-74
2021/12/30 12:11:43;;;;;;;0.60;0.50;;;16.30;99.90;;;;;;5038234;28;89146;-74
2021/12/30 12:14:23;;;;;;;26.92;11.82;;;16.40;99.90;;;;;;5037346;28;89355;-75
2021/12/30 12:16:59;;;;;;;0.77;0.60;;;16.50;99.90;;;;;;5037528;28;89150;-74
2021/12/30 12:19:46;;;;;;;1.70;0.77;;;16.50;99.90;;;;;;5019829;28;89707;-74
2021/12/30 12:22:17;;;;;;;1.10;0.65;;;16.60;99.90;;;;;;5061962;28;89021;-74
2021/12/30 12:24:45;;;;;;;3.47;1.70;;;16.50;99.90;;;;;;5052911;28;91294;-74
2021/12/30 12:27:18;;;;;;;1.50;0.75;;;16.50;99.90;;;;;;5037640;28;90627;-74
2021/12/30 12:29:51;;;;;;;0.40;0.40;;;16.40;99.90;;;;;;5019416;28;89270;-74
2021/12/30 12:32:26;;;;;;;0.73;0.68;;;16.30;99.90;;;;;;5036923;28;89680;-74
2021/12/30 12:34:53;;;;;;;0.90;0.40;;;16.30;99.90;;;;;;5037171;28;89950;-74
2021/12/30 12:37:37;;;;;;;0.52;0.52;;;16.30;99.90;;;;;;5037384;28;89641;-74
2021/12/30 12:40:20;;;;;;;0.40;0.40;;;16.30;99.90;;;;;;5037621;28;89294;-74
2021/12/30 12:42:48;;;;;;;1.80;0.77;;;16.30;99.90;;;;;;5037189;28;89869;-74
2021/12/30 12:45:19;;;;;;;1.27;0.50;;;16.30;99.90;;;;;;5037239;28;89885;-74
2021/12/30 12:47:45;;;;;;;1.70;0.60;;;16.20;99.90;;;;;;5037359;28;89157;-74
2021/12/30 12:50:11;;;;;;;0.82;0.50;;;16.10;99.90;;;;;;5036570;28;90182;-74
2021/12/30 12:52:45;;;;;;;1.17;0.68;;;16.10;99.90;;;;;;5038229;27;89300;-74
2021/12/30 12:55:19;;;;;;;0.50;0.40;;;16.10;99.90;;;;;;5022804;28;92085;-74
2021/12/30 12:57:45;;;;;;;0.90;0.60;;;16.10;99.90;;;;;;5040727;28;90081;-75
2021/12/30 13:00:11;;;;;;;1.02;0.40;;;16.00;99.90;;;;;;5040917;28;89215;-74
2021/12/30 13:02:37;;;;;;;1.17;0.60;;;16.00;99.90;;;;;;5039913;28;89917;-74
2021/12/30 13:05:10;;;;;;;0.40;0.40;;;16.00;99.90;;;;;;5040304;28;91413;-74
2021/12/30 13:07:35;;;;;;;0.50;0.50;;;15.90;99.90;;;;;;5040741;28;88956;-74
2021/12/30 13:10:01;;;;;;;2.15;0.57;;;16.00;99.90;;;;;;5021986;28;89443;-74
2021/12/30 13:12:33;;;;;;;2.33;0.70;;;16.00;99.90;;;;;;5040276;27;89232;-74
2021/12/30 13:14:58;;;;;;;1.45;0.60;;;16.00;99.90;;;;;;5022044;28;92924;-74
2021/12/30 13:17:24;;;;;;;0.75;0.40;;;16.00;99.90;;;;;;5040417;28;90918;-74
2021/12/30 13:19:49;;;;;;;0.95;0.50;;;15.90;99.90;;;;;;5040749;28;89186;-74
2021/12/30 13:22:18;;;;;;;0.95;0.65;;;15.90;99.90;;;;;;5039685;27;89235;-74
2021/12/30 13:24:49;;;;;;;0.55;0.40;;;15.90;99.90;;;;;;5040075;28;89947;-74
2021/12/30 13:27:15;;;;;;;1.25;0.47;;;15.90;99.90;;;;;;5040785;28;89644;-74
2021/12/30 13:29:46;;;;;;;0.98;0.40;;;15.90;99.90;;;;;;5040653;28;89292;-74
2021/12/30 13:32:22;;;;;;;0.73;0.40;;;15.70;99.90;;;;;;5040065;27;90819;-74
2021/12/30 13:34:58;;;;;;;1.23;0.60;;;15.70;99.90;;;;;;5040231;28;90437;-74
2021/12/30 13:37:41;;;;;;;0.65;0.40;;;15.60;99.90;;;;;;5040422;28;89484;-74
2021/12/30 13:40:26;;;;;;;1.10;0.47;;;15.60;99.90;;;;;;5040159;28;90319;-74
2021/12/30 13:43:07;;;;;;;0.50;0.50;;;15.60;99.90;;;;;;5039790;28;89717;-74
2021/12/30 13:45:34;;;;;;;0.77;0.40;;;15.60;99.90;;;;;;5021593;28;92526;-74
2021/12/30 13:48:12;;;;;;;0.30;0.30;;;15.60;99.90;;;;;;5040353;28;88950;-74
2021/12/30 13:50:40;;;;;;;2.25;0.88;;;15.50;99.90;;;;;;5039947;27;89632;-74
2021/12/30 13:53:06;;;;;;;0.63;0.50;;;15.50;99.90;;;;;;5040433;28;89310;-74
2021/12/30 13:55:39;;;;;;;0.93;0.60;;;15.50;99.90;;;;;;5040742;28;89355;-74
2021/12/30 13:58:14;;;;;;;0.80;0.55;;;15.50;99.90;;;;;;5040810;28;89760;-74
2021/12/30 14:00:47;;;;;;;2.10;1.55;;;15.50;99.90;;;;;;5021799;28;89274;-74
2021/12/30 14:03:17;;;;;;;3.22;1.48;;;15.50;99.90;;;;;;5040768;28;89857;-74
2021/12/30 14:05:48;;;;;;;0.82;0.63;;;15.40;99.90;;;;;;5039063;28;90535;-74
2021/12/30 14:08:16;;;;;;;0.80;0.70;;;15.30;99.90;;;;;;5040437;28;90569;-74
2021/12/30 14:10:54;;;;;;;1.33;0.90;;;15.30;99.90;;;;;;5040846;28;89116;-74
2021/12/30 14:13:30;;;;;;;1.05;0.70;;;15.20;99.90;;;;;;5040479;28;89279;-74
2021/12/30 14:15:56;;;;;;;0.90;0.43;;;15.00;99.90;;;;;;5040512;28;89170;-74
2021/12/30 14:18:28;;;;;;;2.35;0.70;;;14.90;99.90;;;;;;5040538;28;89212;-74
2021/12/30 14:20:54;;;;;;;0.88;0.60;;;14.80;99.90;;;;;;5021682;28;89280;-74
2021/12/30 14:23:37;;;;;;;0.80;0.68;;;14.70;99.90;;;;;;5040411;28;90444;-74
2021/12/30 14:26:09;;;;;;;0.77;0.60;;;14.80;99.90;;;;;;5022453;28;93021;-74
2021/12/30 14:28:35;;;;;;;1.25;0.68;;;14.70;99.90;;;;;;5040747;28;89683;-75
2021/12/30 14:31:00;;;;;;;2.10;0.80;;;14.70;99.90;;;;;;5039689;27;90345;-74
2021/12/30 14:33:28;;;;;;;1.50;0.55;;;14.70;99.90;;;;;;5039935;28;89275;-75
2021/12/30 14:36:14;;;;;;;0.80;0.70;;;14.70;99.90;;;;;;5040146;28;89148;-74
2021/12/30 14:38:41;;;;;;;0.75;0.55;;;14.70;99.90;;;;;;5040136;28;89203;-74
2021/12/30 14:41:12;;;;;;;0.40;0.40;;;14.70;99.90;;;;;;5039444;28;89826;-74
2021/12/30 14:44:07;;;;;;;1.25;0.80;;;14.70;99.90;;;;;;5039664;28;90232;-74
2021/12/30 14:46:35;;;;;;;1.02;0.70;;;14.60;99.90;;;;;;5039928;28;90244;-74
2021/12/30 14:49:05;;;;;;;1.08;0.73;;;14.60;99.90;;;;;;5040222;28;89659;-74
2021/12/30 14:51:33;;;;;;;0.73;0.70;;;14.60;99.90;;;;;;5039976;27;89455;-74
2021/12/30 14:54:01;;;;;;;1.88;1.38;;;14.60;99.90;;;;;;5039579;28;89297;-74
2021/12/30 14:56:27;;;;;;;1.10;0.80;;;14.60;99.90;;;;;;5039210;28;90223;-74
2021/12/30 14:58:53;;;;;;;1.35;0.90;;;14.50;99.90;;;;;;5039742;28;89666;-74
2021/12/30 15:01:19;;;;;;;0.95;0.82;;;14.50;99.90;;;;;;5038888;28;89849;-74
2021/12/30 15:03:45;;;;;;;1.10;0.90;;;14.50;99.90;;;;;;5039446;28;89842;-74
2021/12/30 15:06:10;;;;;;;1.80;1.00;;;14.50;99.90;;;;;;5039124;28;90065;-74
2021/12/30 15:08:36;;;;;;;0.93;0.60;;;14.40;99.90;;;;;;5039174;28;89263;-74
2021/12/30 15:11:02;;;;;;;2.30;1.30;;;14.40;99.90;;;;;;5040270;27;89300;-74
2021/12/30 15:13:27;;;;;;;1.25;0.77;;;14.40;99.90;;;;;;5021386;28;91499;-74
2021/12/30 15:15:53;;;;;;;0.60;0.60;;;14.30;99.90;;;;;;5040215;28;88976;-74
2021/12/30 15:18:19;;;;;;;1.13;0.65;;;14.20;99.90;;;;;;5021406;28;91696;-74
2021/12/30 15:20:44;;;;;;;0.70;0.60;;;14.20;99.90;;;;;;5020873;28;90289;-74
2021/12/30 15:23:10;;;;;;;1.20;0.80;;;14.20;99.90;;;;;;5020751;28;91414;-74
2021/12/30 15:25:36;;;;;;;0.90;0.70;;;14.20;99.90;;;;;;5039241;28;89891;-74
2021/12/30 15:28:02;;;;;;;0.70;0.70;;;14.20;99.90;;;;;;5039909;28;89069;-74
2021/12/30 15:30:29;;;;;;;1.75;0.80;;;14.00;99.90;;;;;;5021295;27;89524;-74
2021/12/30 15:33:00;;;;;;;1.55;0.80;;;13.80;99.90;;;;;;5037945;28;91411;-73
2021/12/30 15:35:26;;;;;;;1.13;0.80;;;13.60;99.90;;;;;;5061196;28;89178;-74
2021/12/30 15:37:54;;;;;;;1.00;0.60;;;13.60;99.90;;;;;;5021490;28;91666;-74
2021/12/30 15:40:21;;;;;;;1.55;0.60;;;13.50;99.90;;;;;;5039366;28;89230;-74
2021/12/30 15:42:47;;;;;;;0.95;0.82;;;13.50;99.90;;;;;;5038240;28;89476;-74
2021/12/30 15:45:14;;;;;;;1.23;0.80;;;13.30;99.90;;;;;;5036801;28;90206;-75
2021/12/30 15:47:43;;;;;;;1.08;0.88;;;13.10;99.90;;;;;;5038934;28;91065;-77
2021/12/30 15:50:12;;;;;;;1.95;0.82;;;13.00;99.90;;;;;;5028170;28;89239;-75
2021/12/30 15:52:39;;;;;;;3.33;1.17;;;13.00;99.90;;;;;;5007786;28;89991;-75
2021/12/30 15:55:06;;;;;;;1.45;1.00;;;13.00;99.90;;;;;;5008845;28;89522;-75
2021/12/30 15:57:33;;;;;;;1.10;1.00;;;12.90;99.90;;;;;;4989464;28;89365;-77
2021/12/30 15:59:58;;;;;;;1.17;1.00;;;12.90;99.90;;;;;;5008928;28;89415;-77
2021/12/30 16:02:25;;;;;;;1.60;1.10;;;12.90;99.90;;;;;;5006469;28;90017;-77
2021/12/30 16:04:51;;;;;;;1.40;1.00;;;13.00;99.90;;;;;;4998139;28;90054;-77
2021/12/30 16:07:16;;;;;;;1.42;1.00;;;13.00;99.90;;;;;;4998139;28;89724;-76
2021/12/30 16:09:42;;;;;;;1.73;1.20;;;13.10;99.90;;;;;;4998395;28;90415;-77
2021/12/30 16:12:08;;;;;;;2.38;1.10;;;13.00;99.90;;;;;;4998426;28;89276;-76
2021/12/30 16:14:34;;;;;;;3.25;1.27;;;13.00;99.90;;;;;;4997102;28;89832;-77
2021/12/30 16:17:02;;;;;;;1.23;1.00;;;13.10;99.90;;;;;;5009234;28;91432;-76
2021/12/30 16:19:27;;;;;;;1.73;1.20;;;13.10;99.90;;;;;;5037858;28;89269;-76
2021/12/30 16:21:53;;;;;;;2.05;1.30;;;13.00;99.90;;;;;;5037125;27;89347;-76
2021/12/30 16:24:19;;;;;;;4.07;1.27;;;12.90;99.90;;;;;;5036870;28;89285;-77
2021/12/30 16:26:44;;;;;;;2.60;1.35;;;12.80;99.90;;;;;;4990427;28;91981;-79
2021/12/30 16:29:10;;;;;;;1.70;1.10;;;12.90;99.90;;;;;;5004617;28;89356;-76
2021/12/30 16:31:35;;;;;;;4.05;2.28;;;13.10;99.90;;;;;;5000789;28;90831;-75
2021/12/30 16:34:01;;;;;;;2.88;2.03;;;13.10;99.90;;;;;;4981793;28;93886;-77
2021/12/30 16:36:31;;;;;;;4.75;2.80;;;13.10;99.90;;;;;;5000579;28;92081;-76
2021/12/30 16:38:57;;;;;;;3.85;2.28;;;13.10;99.90;;;;;;5000697;28;89201;-75
2021/12/30 16:41:23;;;;;;;3.63;1.85;;;13.10;99.90;;;;;;5000605;28;89510;-75
2021/12/30 16:43:48;;;;;;;4.50;2.78;;;13.10;99.90;;;;;;4982696;28;91309;-76
2021/12/30 16:46:14;;;;;;;1.80;1.50;;;13.10;99.90;;;;;;4982662;28;91301;-75
2021/12/30 16:48:40;;;;;;;3.90;1.83;;;13.20;99.90;;;;;;4999959;28;89877;-76
2021/12/30 16:51:05;;;;;;;4.20;1.70;;;13.20;99.90;;;;;;4982268;28;91426;-76
2021/12/30 16:53:31;;;;;;;2.40;1.10;;;13.30;99.90;;;;;;4981536;28;92006;-76
2021/12/30 16:55:56;;;;;;;3.20;1.20;;;13.30;99.90;;;;;;5000384;28;89589;-76
2021/12/30 16:58:22;;;;;;;1.63;0.90;;;13.40;99.90;;;;;;4984394;28;90366;-80
2021/12/30 17:00:48;;;;;;;2.00;1.30;;;13.50;99.90;;;;;;5005552;28;89283;-79
2021/12/30 17:03:15;;;;;;;2.35;1.45;;;13.50;99.90;;;;;;5005096;28;89346;-79
2021/12/30 17:05:42;;;;;;;3.53;1.75;;;13.50;99.90;;;;;;5004836;28;90813;-80
2021/12/30 17:08:09;;;;;;;2.25;1.38;;;13.50;99.90;;;;;;5006184;28;89533;-79
2021/12/30 17:10:36;;;;;;;2.42;1.27;;;13.40;99.90;;;;;;4986126;28;91437;-79
2021/12/30 17:13:02;;;;;;;1.75;1.10;;;13.40;99.90;;;;;;5005300;28;89255;-80
2021/12/30 17:15:28;;;;;;;1.50;0.88;;;13.30;99.90;;;;;;5013869;28;89836;-79
2021/12/30 17:17:53;;;;;;;3.85;1.25;;;13.30;99.90;;;;;;4995959;28;89266;-79
2021/12/30 17:20:21;;;;;;;1.17;0.98;;;13.20;99.90;;;;;;5008108;28;90297;-79
2021/12/30 17:22:46;;;;;;;1.42;1.10;;;13.20;99.90;;;;;;5001741;28;91422;-79
2021/12/30 17:25:16;;;;;;;2.33;1.55;;;13.10;99.90;;;;;;5002653;28;90545;-79
2021/12/30 17:27:43;;;;;;;2.60;1.08;;;13.00;99.90;;;;;;5002217;28;89319;-79
2021/12/30 17:30:10;;;;;;;2.25;1.33;;;13.00;99.90;;;;;;4983361;28;92729;-78
2021/12/30 17:32:36;;;;;;;1.58;1.00;;;13.00;99.90;;;;;;4983508;28;93028;-79
2021/12/30 17:35:03;;;;;;;3.40;1.70;;;13.10;99.90;;;;;;5001853;28;90661;-79
2021/12/30 17:37:28;;;;;;;2.97;1.83;;;13.00;99.90;;;;;;5005352;28;89181;-79
2021/12/30 17:39:54;;;;;;;3.22;2.17;;;12.90;99.90;;;;;;5005655;28;90109;-78
2021/12/30 17:42:20;;;;;;;2.92;1.60;;;13.00;99.90;;;;;;5013773;28;91980;-79
2021/12/30 17:44:45;;;;;;;5.15;1.80;;;13.00;99.90;;;;;;5015836;28;91293;-79
2021/12/30 17:47:11;;;;;;;3.70;1.73;;;12.90;99.90;;;;;;5014246;28;90098;-79
2021/12/30 17:49:36;;;;;;;3.92;1.98;;;12.70;99.90;;;;;;5013158;28;91862;-76
2021/12/30 17:52:04;;;;;;;5.40;1.77;;;12.60;99.90;;;;;;5036635;27;89607;-77
2021/12/30 17:54:32;;;;;;;3.50;2.10;;;12.60;99.90;;;;;;5039381;28;89525;-76